Terminal Aerodrome Forecast
Issued by NWS Charleston, WV

Current Version | Previous Version | Graphics & Text | Print | Product List | Glossary On
Versions: 1 2 3 4 5 6 7 8 9 10 11 12 13 14 15 16 17 18 19 20 21 22 23 24 25 26 27
000
FTUS41 KRLX 201100 AAA
TAFEKN
TAF AMD
KEKN 201139Z 2012/2112 00000KT 3SM BR VCTS SCT001 BKN003CB
      TEMPO 2012/2013 4SM -SHRA BR SCT003 BKN025
     FM201300 00000KT 6SM -RA BR BKN025
      TEMPO 2013/2015 3SM -SHRA BR SCT015
     FM201900 24005KT P6SM VCTS BKN040CB
     FM210300 00000KT 2SM BR BKN040
     FM210500 00000KT 1/4SM FG VV001=

USA.gov is the U.S. government's official web portal to all federal, state and local government web resources and services.